sensor_id;sensor_type;location;lat;lon;timestamp;pressure;altitude;pressure_sealevel;temperature;humidity
36284;BME280;56085;48.910;9.478;2023-03-13T00:03:45;97698.56;;;8.83;64.85
36284;BME280;56085;48.910;9.478;2023-03-13T00:06:10;97695.81;;;8.83;64.34
36284;BME280;56085;48.910;9.478;2023-03-13T00:08:36;97704.88;;;8.83;65.02
36284;BME280;56085;48.910;9.478;2023-03-13T00:11:02;97703.72;;;8.84;65.24
36284;BME280;56085;48.910;9.478;2023-03-13T00:13:27;97699.03;;;8.85;65.24
36284;BME280;56085;48.910;9.478;2023-03-13T00:15:58;97700.16;;;8.84;64.92
36284;BME280;56085;48.910;9.478;2023-03-13T00:18:23;97709.22;;;8.84;64.95
36284;BME280;56085;48.910;9.478;2023-03-13T00:20:48;97700.59;;;8.86;64.93
36284;BME280;56085;48.910;9.478;2023-03-13T00:23:14;97702.19;;;8.87;64.69
36284;BME280;56085;48.910;9.478;2023-03-13T00:25:39;97697.47;;;8.87;65.48
36284;BME280;56085;48.910;9.478;2023-03-13T00:28:04;97699.06;;;8.88;65.00
36284;BME280;56085;48.910;9.478;2023-03-13T00:30:30;97687.31;;;8.91;65.13
36284;BME280;56085;48.910;9.478;2023-03-13T00:32:55;97690.53;;;8.94;65.40
36284;BME280;56085;48.910;9.478;2023-03-13T00:35:20;97686.22;;;8.96;64.88
36284;BME280;56085;48.910;9.478;2023-03-13T00:37:45;97685.84;;;8.98;64.79
36284;BME280;56085;48.910;9.478;2023-03-13T00:40:10;97681.16;;;8.98;64.84
36284;BME280;56085;48.910;9.478;2023-03-13T00:42:36;97681.94;;;8.99;64.90
36284;BME280;56085;48.910;9.478;2023-03-13T00:45:02;97685.84;;;8.98;64.96
36284;BME280;56085;48.910;9.478;2023-03-13T00:47:27;97670.47;;;8.97;65.25
36284;BME280;56085;48.910;9.478;2023-03-13T00:49:52;97668.50;;;8.97;64.69
36284;BME280;56085;48.910;9.478;2023-03-13T00:52:17;97667.50;;;9.05;64.54
36284;BME280;56085;48.910;9.478;2023-03-13T00:54:42;97668.31;;;9.09;64.70
36284;BME280;56085;48.910;9.478;2023-03-13T00:57:08;97663.69;;;9.14;64.70
36284;BME280;56085;48.910;9.478;2023-03-13T00:59:33;97653.50;;;9.18;64.63
36284;BME280;56085;48.910;9.478;2023-03-13T01:01:58;97657.88;;;9.19;64.04
36284;BME280;56085;48.910;9.478;2023-03-13T01:04:24;97646.41;;;9.17;63.81
36284;BME280;56085;48.910;9.478;2023-03-13T01:06:49;97648.38;;;9.16;64.42
36284;BME280;56085;48.910;9.478;2023-03-13T01:09:15;97642.47;;;9.18;64.63
36284;BME280;56085;48.910;9.478;2023-03-13T01:11:41;97634.63;;;9.20;64.60
36284;BME280;56085;48.910;9.478;2023-03-13T01:14:08;97631.09;;;9.19;63.71
36284;BME280;56085;48.910;9.478;2023-03-13T01:16:33;97629.56;;;9.22;64.00
36284;BME280;56085;48.910;9.478;2023-03-13T01:19:00;97620.13;;;9.23;64.47
36284;BME280;56085;48.910;9.478;2023-03-13T01:21:25;97624.09;;;9.25;64.11
36284;BME280;56085;48.910;9.478;2023-03-13T01:23:51;97610.28;;;9.25;64.05
36284;BME280;56085;48.910;9.478;2023-03-13T01:26:17;97609.91;;;9.27;63.98
36284;BME280;56085;48.910;9.478;2023-03-13T01:28:42;97606.38;;;9.26;63.99
36284;BME280;56085;48.910;9.478;2023-03-13T01:31:12;97607.53;;;9.25;63.17
36284;BME280;56085;48.910;9.478;2023-03-13T01:33:37;97591.34;;;9.24;63.11
36284;BME280;56085;48.910;9.478;2023-03-13T01:36:03;97593.69;;;9.22;63.76
36284;BME280;56085;48.910;9.478;2023-03-13T01:38:28;97588.19;;;9.22;63.55
36284;BME280;56085;48.910;9.478;2023-03-13T01:40:53;97584.25;;;9.23;62.98
36284;BME280;56085;48.910;9.478;2023-03-13T01:43:22;97573.22;;;9.23;62.97
36284;BME280;56085;48.910;9.478;2023-03-13T01:48:30;97568.88;;;9.22;63.45
36284;BME280;56085;48.910;9.478;2023-03-13T01:50:59;97562.63;;;9.25;62.76
36284;BME280;56085;48.910;9.478;2023-03-13T01:53:25;97563.41;;;9.25;62.89
36284;BME280;56085;48.910;9.478;2023-03-13T01:55:51;97561.44;;;9.26;63.07
36284;BME280;56085;48.910;9.478;2023-03-13T01:58:18;97560.63;;;9.25;63.06
36284;BME280;56085;48.910;9.478;2023-03-13T02:00:43;97547.66;;;9.26;62.73
36284;BME280;56085;48.910;9.478;2023-03-13T02:03:10;97553.19;;;9.26;62.90
36284;BME280;56085;48.910;9.478;2023-03-13T02:05:37;97545.28;;;9.24;62.65
36284;BME280;56085;48.910;9.478;2023-03-13T02:08:09;97546.06;;;9.25;62.81
36284;BME280;56085;48.910;9.478;2023-03-13T02:10:37;97537.03;;;9.28;62.56
36284;BME280;56085;48.910;9.478;2023-03-13T02:13:05;97531.53;;;9.28;62.87
36284;BME280;56085;48.910;9.478;2023-03-13T02:15:30;97543.78;;;9.31;62.48
36284;BME280;56085;48.910;9.478;2023-03-13T02:17:55;97540.25;;;9.30;62.35
36284;BME280;56085;48.910;9.478;2023-03-13T02:20:21;97537.47;;;9.30;62.16
36284;BME280;56085;48.910;9.478;2023-03-13T02:28:04;97519.81;;;9.35;62.12
36284;BME280;56085;48.910;9.478;2023-03-13T02:30:31;97530.84;;;9.35;62.44
36284;BME280;56085;48.910;9.478;2023-03-13T02:32:57;97523.75;;;9.37;61.91
36284;BME280;56085;48.910;9.478;2023-03-13T02:35:23;97513.91;;;9.36;62.41
36284;BME280;56085;48.910;9.478;2023-03-13T02:37:49;97524.22;;;9.39;62.22
36284;BME280;56085;48.910;9.478;2023-03-13T02:40:17;97520.69;;;9.42;62.60
36284;BME280;56085;48.910;9.478;2023-03-13T02:42:45;97516.41;;;9.45;62.51
36284;BME280;56085;48.910;9.478;2023-03-13T02:45:14;97516.44;;;9.49;62.52
36284;BME280;56085;48.910;9.478;2023-03-13T02:47:40;97515.31;;;9.53;61.86
36284;BME280;56085;48.910;9.478;2023-03-13T02:50:05;97504.34;;;9.57;61.93
36284;BME280;56085;48.910;9.478;2023-03-13T02:52:32;97498.44;;;9.58;62.26
36284;BME280;56085;48.910;9.478;2023-03-13T02:55:04;97490.97;;;9.59;61.89
36284;BME280;56085;48.910;9.478;2023-03-13T02:57:30;97476.78;;;9.60;62.21
36284;BME280;56085;48.910;9.478;2023-03-13T02:59:56;97470.06;;;9.58;62.12
36284;BME280;56085;48.910;9.478;2023-03-13T03:02:21;97462.16;;;9.56;62.50
36284;BME280;56085;48.910;9.478;2023-03-13T03:04:46;97456.22;;;9.54;62.78
36284;BME280;56085;48.910;9.478;2023-03-13T03:07:11;97458.31;;;9.65;62.77
36284;BME280;56085;48.910;9.478;2023-03-13T03:09:37;97446.00;;;9.58;62.32
36284;BME280;56085;48.910;9.478;2023-03-13T03:12:02;97454.22;;;9.55;62.35
36284;BME280;56085;48.910;9.478;2023-03-13T03:14:27;97442.78;;;9.53;62.86
36284;BME280;56085;48.910;9.478;2023-03-13T03:16:52;97437.25;;;9.49;63.19
36284;BME280;56085;48.910;9.478;2023-03-13T03:19:17;97432.53;;;9.53;63.21
36284;BME280;56085;48.910;9.478;2023-03-13T03:21:43;97424.22;;;9.50;62.93
36284;BME280;56085;48.910;9.478;2023-03-13T03:24:08;97425.75;;;9.47;63.51
36284;BME280;56085;48.910;9.478;2023-03-13T03:26:33;97427.69;;;9.43;63.39
36284;BME280;56085;48.910;9.478;2023-03-13T03:28:58;97434.78;;;9.44;63.74
36284;BME280;56085;48.910;9.478;2023-03-13T03:31:24;97429.66;;;9.42;63.65
36284;BME280;56085;48.910;9.478;2023-03-13T03:33:49;97432.41;;;9.42;64.46
36284;BME280;56085;48.910;9.478;2023-03-13T03:36:15;97429.25;;;9.40;64.41
36284;BME280;56085;48.910;9.478;2023-03-13T03:38:42;97425.28;;;9.41;64.26
36284;BME280;56085;48.910;9.478;2023-03-13T03:41:07;97424.03;;;9.35;64.36
36284;BME280;56085;48.910;9.478;2023-03-13T03:43:33;97427.22;;;9.37;65.29
36284;BME280;56085;48.910;9.478;2023-03-13T03:45:59;97422.88;;;9.36;65.72
36284;BME280;56085;48.910;9.478;2023-03-13T03:48:24;97420.41;;;9.28;65.37
36284;BME280;56085;48.910;9.478;2023-03-13T03:50:49;97420.72;;;9.22;65.90
36284;BME280;56085;48.910;9.478;2023-03-13T03:53:14;97416.69;;;9.16;66.49
36284;BME280;56085;48.910;9.478;2023-03-13T03:55:39;97417.84;;;9.15;66.98
36284;BME280;56085;48.910;9.478;2023-03-13T03:58:05;97417.47;;;9.17;67.04
36284;BME280;56085;48.910;9.478;2023-03-13T04:00:30;97419.84;;;9.15;67.93
36284;BME280;56085;48.910;9.478;2023-03-13T04:02:55;97410.81;;;9.18;67.89
36284;BME280;56085;48.910;9.478;2023-03-13T04:05:21;97420.69;;;9.19;68.40
36284;BME280;56085;48.910;9.478;2023-03-13T04:07:46;97411.56;;;9.15;69.47
36284;BME280;56085;48.910;9.478;2023-03-13T04:10:11;97403.22;;;9.11;69.89
36284;BME280;56085;48.910;9.478;2023-03-13T04:12:36;97402.03;;;9.08;69.50
36284;BME280;56085;48.910;9.478;2023-03-13T04:15:01;97406.69;;;9.04;70.39
36284;BME280;56085;48.910;9.478;2023-03-13T04:17:27;97399.66;;;9.07;70.58
36284;BME280;56085;48.910;9.478;2023-03-13T04:19:52;97401.19;;;9.04;71.07
36284;BME280;56085;48.910;9.478;2023-03-13T04:22:17;97398.94;;;9.14;71.11
36284;BME280;56085;48.910;9.478;2023-03-13T04:24:42;97382.53;;;9.24;71.77
36284;BME280;56085;48.910;9.478;2023-03-13T04:27:07;97386.13;;;9.29;71.71
36284;BME280;56085;48.910;9.478;2023-03-13T04:29:33;97380.41;;;9.44;71.82
36284;BME280;56085;48.910;9.478;2023-03-13T04:31:58;97370.28;;;9.56;71.97
36284;BME280;56085;48.910;9.478;2023-03-13T04:34:23;97372.34;;;9.63;72.12
36284;BME280;56085;48.910;9.478;2023-03-13T04:36:48;97377.19;;;9.73;72.41
36284;BME280;56085;48.910;9.478;2023-03-13T04:39:13;97371.88;;;9.94;72.53
36284;BME280;56085;48.910;9.478;2023-03-13T04:41:39;97366.16;;;10.18;72.46
36284;BME280;56085;48.910;9.478;2023-03-13T04:44:04;97371.72;;;10.21;72.59
36284;BME280;56085;48.910;9.478;2023-03-13T04:46:29;97376.50;;;10.24;72.35
36284;BME280;56085;48.910;9.478;2023-03-13T04:48:54;97363.06;;;10.26;72.51
36284;BME280;56085;48.910;9.478;2023-03-13T04:51:19;97377.41;;;10.36;72.08
36284;BME280;56085;48.910;9.478;2023-03-13T04:53:45;97376.31;;;10.47;72.16
36284;BME280;56085;48.910;9.478;2023-03-13T04:56:11;97377.94;;;10.52;72.40
36284;BME280;56085;48.910;9.478;2023-03-13T04:58:39;97374.84;;;10.61;72.33
36284;BME280;56085;48.910;9.478;2023-03-13T05:01:05;97366.94;;;10.63;72.46
36284;BME280;56085;48.910;9.478;2023-03-13T05:03:30;97383.19;;;10.72;72.76
36284;BME280;56085;48.910;9.478;2023-03-13T05:05:55;97373.72;;;10.73;72.35
36284;BME280;56085;48.910;9.478;2023-03-13T05:08:20;97376.16;;;10.78;72.47
36284;BME280;56085;48.910;9.478;2023-03-13T05:10:46;97374.97;;;10.82;72.71
36284;BME280;56085;48.910;9.478;2023-03-13T05:13:11;97366.69;;;10.86;72.48
36284;BME280;56085;48.910;9.478;2023-03-13T05:15:36;97352.47;;;10.88;72.52
36284;BME280;56085;48.910;9.478;2023-03-13T05:18:01;97373.88;;;10.91;72.96
36284;BME280;56085;48.910;9.478;2023-03-13T05:20:27;97361.63;;;10.95;72.58
36284;BME280;56085;48.910;9.478;2023-03-13T05:22:52;97362.41;;;10.96;72.62
36284;BME280;56085;48.910;9.478;2023-03-13T05:25:17;97357.66;;;10.96;72.94
36284;BME280;56085;48.910;9.478;2023-03-13T05:27:42;97353.34;;;10.95;72.81
36284;BME280;56085;48.910;9.478;2023-03-13T05:30:08;97350.56;;;10.95;73.14
36284;BME280;56085;48.910;9.478;2023-03-13T05:32:33;97356.16;;;11.03;73.01
36284;BME280;56085;48.910;9.478;2023-03-13T05:34:58;97347.84;;;11.03;72.92
36284;BME280;56085;48.910;9.478;2023-03-13T05:37:23;97356.53;;;11.01;73.43
36284;BME280;56085;48.910;9.478;2023-03-13T05:39:48;97350.22;;;11.04;73.44
36284;BME280;56085;48.910;9.478;2023-03-13T05:42:14;97354.56;;;11.05;73.48
36284;BME280;56085;48.910;9.478;2023-03-13T05:44:39;97339.16;;;11.08;73.25
36284;BME280;56085;48.910;9.478;2023-03-13T05:47:04;97355.75;;;11.08;73.25
36284;BME280;56085;48.910;9.478;2023-03-13T05:49:29;97350.25;;;11.11;73.36
36284;BME280;56085;48.910;9.478;2023-03-13T05:51:54;97347.88;;;11.10;72.82
36284;BME280;56085;48.910;9.478;2023-03-13T05:54:20;97340.38;;;11.10;72.94
36284;BME280;56085;48.910;9.478;2023-03-13T05:56:45;97354.59;;;11.12;73.21
36284;BME280;56085;48.910;9.478;2023-03-13T05:59:12;97351.81;;;11.12;73.10
36284;BME280;56085;48.910;9.478;2023-03-13T06:01:37;97348.63;;;11.07;73.45
36284;BME280;56085;48.910;9.478;2023-03-13T06:04:03;97350.19;;;10.97;73.77
36284;BME280;56085;48.910;9.478;2023-03-13T06:06:28;97353.69;;;10.90;74.06
36284;BME280;56085;48.910;9.478;2023-03-13T06:08:53;97346.94;;;10.84;74.10
36284;BME280;56085;48.910;9.478;2023-03-13T06:11:18;97344.16;;;10.80;74.80
36284;BME280;56085;48.910;9.478;2023-03-13T06:13:43;97341.38;;;10.77;74.70
36284;BME280;56085;48.910;9.478;2023-03-13T06:16:08;97347.28;;;10.79;74.82
36284;BME280;56085;48.910;9.478;2023-03-13T06:18:34;97347.72;;;10.81;75.09
36284;BME280;56085;48.910;9.478;2023-03-13T06:21:00;97354.06;;;10.85;75.17
36284;BME280;56085;48.910;9.478;2023-03-13T06:23:26;97335.09;;;10.87;75.43
36284;BME280;56085;48.910;9.478;2023-03-13T06:25:51;97356.88;;;10.92;75.39
36284;BME280;56085;48.910;9.478;2023-03-13T06:28:16;97362.41;;;10.96;75.38
36284;BME280;56085;48.910;9.478;2023-03-13T06:30:42;97355.34;;;11.02;75.38
36284;BME280;56085;48.910;9.478;2023-03-13T06:33:07;97352.59;;;11.06;75.27
36284;BME280;56085;48.910;9.478;2023-03-13T06:35:32;97348.28;;;11.08;75.13
36284;BME280;56085;48.910;9.478;2023-03-13T06:37:58;97342.34;;;11.13;75.12
36284;BME280;56085;48.910;9.478;2023-03-13T06:40:23;97327.38;;;11.22;74.74
36284;BME280;56085;48.910;9.478;2023-03-13T06:42:48;97335.28;;;11.23;74.80
36284;BME280;56085;48.910;9.478;2023-03-13T06:45:13;97346.34;;;11.27;75.06
36284;BME280;56085;48.910;9.478;2023-03-13T06:47:39;97331.34;;;11.31;74.87
36284;BME280;56085;48.910;9.478;2023-03-13T06:50:04;97351.94;;;11.34;74.60
36284;BME280;56085;48.910;9.478;2023-03-13T06:52:29;97348.38;;;11.33;74.71
36284;BME280;56085;48.910;9.478;2023-03-13T06:54:54;97338.50;;;11.36;74.53
36284;BME280;56085;48.910;9.478;2023-03-13T06:57:20;97352.75;;;11.38;74.48
36284;BME280;56085;48.910;9.478;2023-03-13T06:59:45;97353.53;;;11.35;74.57
36284;BME280;56085;48.910;9.478;2023-03-13T07:02:10;97349.97;;;11.38;74.45
36284;BME280;56085;48.910;9.478;2023-03-13T07:04:36;97351.56;;;11.39;74.28
36284;BME280;56085;48.910;9.478;2023-03-13T07:07:01;97348.78;;;11.39;74.23
36284;BME280;56085;48.910;9.478;2023-03-13T07:09:26;97354.34;;;11.39;74.08
36284;BME280;56085;48.910;9.478;2023-03-13T07:11:51;97357.53;;;11.45;74.36
36284;BME280;56085;48.910;9.478;2023-03-13T07:14:17;97362.66;;;11.46;74.21
36284;BME280;56085;48.910;9.478;2023-03-13T07:16:42;97369.38;;;11.49;74.24
36284;BME280;56085;48.910;9.478;2023-03-13T07:19:07;97372.94;;;11.49;74.38
36284;BME280;56085;48.910;9.478;2023-03-13T07:21:32;97373.34;;;11.51;74.27
36284;BME280;56085;48.910;9.478;2023-03-13T07:23:57;97383.63;;;11.51;74.27
36284;BME280;56085;48.910;9.478;2023-03-13T07:26:23;97376.53;;;11.53;74.33
36284;BME280;56085;48.910;9.478;2023-03-13T07:28:48;97388.78;;;11.56;74.46
36284;BME280;56085;48.910;9.478;2023-03-13T07:31:14;97383.66;;;11.58;74.29
36284;BME280;56085;48.910;9.478;2023-03-13T07:33:40;97378.91;;;11.59;74.13
36284;BME280;56085;48.910;9.478;2023-03-13T07:36:06;97374.97;;;11.60;74.31
36284;BME280;56085;48.910;9.478;2023-03-13T07:38:31;97360.72;;;11.61;74.15
36284;BME280;56085;48.910;9.478;2023-03-13T07:40:57;97372.59;;;11.62;74.29
36284;BME280;56085;48.910;9.478;2023-03-13T07:43:23;97364.69;;;11.64;74.46
36284;BME280;56085;48.910;9.478;2023-03-13T07:48:20;97353.22;;;11.65;74.55
36284;BME280;56085;48.910;9.478;2023-03-13T07:50:45;97354.41;;;11.64;74.94
36284;BME280;56085;48.910;9.478;2023-03-13T07:53:10;97346.91;;;11.68;74.68
36284;BME280;56085;48.910;9.478;2023-03-13T07:55:36;97344.53;;;11.67;74.74
36284;BME280;56085;48.910;9.478;2023-03-13T07:58:01;97346.50;;;11.70;74.97
36284;BME280;56085;48.910;9.478;2023-03-13T08:00:26;97353.63;;;11.67;74.80
36284;BME280;56085;48.910;9.478;2023-03-13T08:02:51;97340.19;;;11.73;74.81
36284;BME280;56085;48.910;9.478;2023-03-13T08:05:16;97338.59;;;11.72;74.71
36284;BME280;56085;48.910;9.478;2023-03-13T08:07:45;97329.91;;;11.74;74.93
36284;BME280;56085;48.910;9.478;2023-03-13T08:10:10;97328.34;;;11.80;74.78
36284;BME280;56085;48.910;9.478;2023-03-13T08:12:35;97327.94;;;11.85;74.58
36284;BME280;56085;48.910;9.478;2023-03-13T08:15:00;97331.13;;;11.91;74.87
36284;BME280;56085;48.910;9.478;2023-03-13T08:17:27;97328.41;;;11.98;74.78
36284;BME280;56085;48.910;9.478;2023-03-13T08:19:53;97314.53;;;12.09;74.78
36284;BME280;56085;48.910;9.478;2023-03-13T08:22:18;97324.44;;;12.20;74.63
36284;BME280;56085;48.910;9.478;2023-03-13T08:24:43;97304.63;;;12.36;74.46
36284;BME280;56085;48.910;9.478;2023-03-13T08:27:08;97301.06;;;12.43;74.36
36284;BME280;56085;48.910;9.478;2023-03-13T08:29:33;97299.84;;;12.66;74.21
36284;BME280;56085;48.910;9.478;2023-03-13T08:31:59;97287.13;;;12.83;74.01
36284;BME280;56085;48.910;9.478;2023-03-13T08:34:24;97289.84;;;12.93;73.58
36284;BME280;56085;48.910;9.478;2023-03-13T08:36:49;97297.00;;;12.91;73.56
36284;BME280;56085;48.910;9.478;2023-03-13T08:39:15;97296.16;;;13.05;73.03
36284;BME280;56085;48.910;9.478;2023-03-13T08:41:41;97294.56;;;13.04;73.08
36284;BME280;56085;48.910;9.478;2023-03-13T08:44:07;97294.50;;;13.25;73.06
36284;BME280;56085;48.910;9.478;2023-03-13T08:46:34;97315.13;;;13.21;72.82
36284;BME280;56085;48.910;9.478;2023-03-13T08:49:00;97292.91;;;13.35;72.15
36284;BME280;56085;48.910;9.478;2023-03-13T08:51:26;97302.75;;;13.47;72.12
36284;BME280;56085;48.910;9.478;2023-03-13T08:53:51;97299.53;;;13.56;72.10
36284;BME280;56085;48.910;9.478;2023-03-13T08:56:18;97299.94;;;13.54;71.48
36284;BME280;56085;48.910;9.478;2023-03-13T08:58:43;97298.34;;;13.57;71.39
36284;BME280;56085;48.910;9.478;2023-03-13T09:01:12;97293.19;;;13.55;71.34
36284;BME280;56085;48.910;9.478;2023-03-13T09:03:38;97288.78;;;13.58;70.90
36284;BME280;56085;48.910;9.478;2023-03-13T09:06:03;97293.56;;;13.61;71.11
36284;BME280;56085;48.910;9.478;2023-03-13T09:08:29;97286.38;;;13.64;70.80
36284;BME280;56085;48.910;9.478;2023-03-13T09:10:55;97294.31;;;13.65;70.54
36284;BME280;56085;48.910;9.478;2023-03-13T09:13:21;97288.75;;;13.65;70.48
36284;BME280;56085;48.910;9.478;2023-03-13T09:15:52;97288.75;;;13.69;70.48
36284;BME280;56085;48.910;9.478;2023-03-13T09:18:17;97285.09;;;13.79;70.43
36284;BME280;56085;48.910;9.478;2023-03-13T09:20:43;97285.97;;;13.69;69.94
36284;BME280;56085;48.910;9.478;2023-03-13T09:23:08;97289.53;;;13.69;69.52
36284;BME280;56085;48.910;9.478;2023-03-13T09:25:34;97280.88;;;13.60;69.57
36284;BME280;56085;48.910;9.478;2023-03-13T09:28:01;97278.50;;;13.58;69.45
36284;BME280;56085;48.910;9.478;2023-03-13T09:30:26;97280.00;;;13.67;69.28
36284;BME280;56085;48.910;9.478;2023-03-13T09:32:52;97277.19;;;13.74;69.41
36284;BME280;56085;48.910;9.478;2023-03-13T09:35:17;97268.78;;;13.85;69.09
36284;BME280;56085;48.910;9.478;2023-03-13T09:37:42;97261.19;;;13.92;69.20
36284;BME280;56085;48.910;9.478;2023-03-13T09:40:08;97268.28;;;13.97;68.82
36284;BME280;56085;48.910;9.478;2023-03-13T09:42:38;97278.13;;;14.09;68.89
36284;BME280;56085;48.910;9.478;2023-03-13T09:45:12;97283.72;;;14.05;68.48
36284;BME280;56085;48.910;9.478;2023-03-13T09:47:40;97278.94;;;14.06;68.46
36284;BME280;56085;48.910;9.478;2023-03-13T09:50:17;97285.72;;;14.05;68.36
36284;BME280;56085;48.910;9.478;2023-03-13T09:52:43;97280.97;;;14.02;67.81
36284;BME280;56085;48.910;9.478;2023-03-13T10:00:26;97280.13;;;14.08;67.74
36284;BME280;56085;48.910;9.478;2023-03-13T10:05:48;97290.25;;;14.33;67.04
36284;BME280;56085;48.910;9.478;2023-03-13T10:08:15;97273.28;;;14.65;66.75
36284;BME280;56085;48.910;9.478;2023-03-13T10:10:54;97266.97;;;14.96;66.76
36284;BME280;56085;48.910;9.478;2023-03-13T10:13:22;97270.19;;;15.25;66.19
36284;BME280;56085;48.910;9.478;2023-03-13T10:15:57;97262.50;;;15.36;65.82
36284;BME280;56085;48.910;9.478;2023-03-13T10:18:25;97262.09;;;15.34;65.67
36284;BME280;56085;48.910;9.478;2023-03-13T10:20:55;97263.53;;;15.19;65.44
36284;BME280;56085;48.910;9.478;2023-03-13T10:26:09;97238.69;;;15.32;64.63
36284;BME280;56085;48.910;9.478;2023-03-13T10:28:39;97238.72;;;15.28;64.00
36284;BME280;56085;48.910;9.478;2023-03-13T10:31:05;97234.22;;;15.38;63.85
36284;BME280;56085;48.910;9.478;2023-03-13T10:33:33;97223.88;;;15.66;63.68
36284;BME280;56085;48.910;9.478;2023-03-13T10:36:08;97214.00;;;16.12;63.72
36284;BME280;56085;48.910;9.478;2023-03-13T10:38:44;97217.00;;;16.45;62.92
36284;BME280;56085;48.910;9.478;2023-03-13T10:41:17;97211.78;;;16.67;62.72
36284;BME280;56085;48.910;9.478;2023-03-13T10:43:50;97217.06;;;16.62;62.28
36284;BME280;56085;48.910;9.478;2023-03-13T10:46:22;97207.25;;;16.33;61.49
36284;BME280;56085;48.910;9.478;2023-03-13T10:48:48;97205.22;;;16.78;61.31
36284;BME280;56085;48.910;9.478;2023-03-13T10:51:19;97188.97;;;16.72;61.10
36284;BME280;56085;48.910;9.478;2023-03-13T10:53:45;97185.41;;;16.92;60.38
36284;BME280;56085;48.910;9.478;2023-03-13T10:56:11;97183.97;;;17.04;60.09
36284;BME280;56085;48.910;9.478;2023-03-13T10:58:49;97187.63;;;17.37;60.03
36284;BME280;56085;48.910;9.478;2023-03-13T11:01:23;97186.97;;;17.66;59.73
36284;BME280;56085;48.910;9.478;2023-03-13T11:03:50;97191.69;;;17.69;59.16
36284;BME280;56085;48.910;9.478;2023-03-13T11:08:47;97165.22;;;18.07;58.09
36284;BME280;56085;48.910;9.478;2023-03-13T11:11:18;97168.16;;;18.16;57.70
36284;BME280;56085;48.910;9.478;2023-03-13T11:13:44;97169.47;;;18.28;57.54
36284;BME280;56085;48.910;9.478;2023-03-13T11:18:57;97166.38;;;18.39;56.73
36284;BME280;56085;48.910;9.478;2023-03-13T11:21:38;97172.06;;;18.35;56.03
36284;BME280;56085;48.910;9.478;2023-03-13T11:24:07;97155.34;;;18.48;55.71
36284;BME280;56085;48.910;9.478;2023-03-13T11:26:37;97146.53;;;18.62;55.47
36284;BME280;56085;48.910;9.478;2023-03-13T11:29:13;97154.75;;;18.70;55.18
36284;BME280;56085;48.910;9.478;2023-03-13T11:31:47;97146.34;;;18.40;54.56
36284;BME280;56085;48.910;9.478;2023-03-13T11:34:21;97144.22;;;18.74;54.40
36284;BME280;56085;48.910;9.478;2023-03-13T11:37:04;97136.50;;;18.78;54.09
36284;BME280;56085;48.910;9.478;2023-03-13T11:39:40;97113.72;;;19.05;53.85
36284;BME280;56085;48.910;9.478;2023-03-13T11:42:21;97118.63;;;19.01;53.61
36284;BME280;56085;48.910;9.478;2023-03-13T11:44:58;97095.88;;;19.38;53.17
36284;BME280;56085;48.910;9.478;2023-03-13T11:47:28;97107.13;;;19.25;52.82
36284;BME280;56085;48.910;9.478;2023-03-13T11:50:04;97101.38;;;19.54;52.52
36284;BME280;56085;48.910;9.478;2023-03-13T11:52:42;97094.53;;;20.03;51.95
36284;BME280;56085;48.910;9.478;2023-03-13T12:00:46;97078.59;;;20.13;50.94
36284;BME280;56085;48.910;9.478;2023-03-13T12:05:42;97060.81;;;19.94;50.29
36284;BME280;56085;48.910;9.478;2023-03-13T12:08:11;97054.19;;;20.45;50.15
36284;BME280;56085;48.910;9.478;2023-03-13T12:10:40;97034.19;;;20.65;49.91
36284;BME280;56085;48.910;9.478;2023-03-13T12:13:12;97037.56;;;21.22;49.59
36284;BME280;56085;48.910;9.478;2023-03-13T12:15:42;97023.78;;;21.06;49.30
36284;BME280;56085;48.910;9.478;2023-03-13T12:18:12;97021.25;;;20.99;48.93
36284;BME280;56085;48.910;9.478;2023-03-13T12:20:43;97017.06;;;20.72;48.56
36284;BME280;56085;48.910;9.478;2023-03-13T12:23:16;97017.25;;;20.24;48.23
36284;BME280;56085;48.910;9.478;2023-03-13T12:30:42;97006.00;;;19.80;47.95
36284;BME280;56085;48.910;9.478;2023-03-13T12:33:19;96992.84;;;19.77;47.90
36284;BME280;56085;48.910;9.478;2023-03-13T12:35:50;96979.00;;;20.17;47.95
36284;BME280;56085;48.910;9.478;2023-03-13T12:38:20;96967.72;;;20.08;47.98
36284;BME280;56085;48.910;9.478;2023-03-13T12:43:46;96971.53;;;20.77;47.22
36284;BME280;56085;48.910;9.478;2023-03-13T12:46:29;96951.03;;;21.08;47.19
36284;BME280;56085;48.910;9.478;2023-03-13T12:54:08;96927.88;;;22.76;46.17
36284;BME280;56085;48.910;9.478;2023-03-13T12:59:06;96912.28;;;24.47;45.40
36284;BME280;56085;48.910;9.478;2023-03-13T13:01:43;96933.72;;;27.46;44.18
36284;BME280;56085;48.910;9.478;2023-03-13T13:04:11;96922.28;;;32.10;42.80
36284;BME280;56085;48.910;9.478;2023-03-13T13:09:16;96902.09;;;33.93;39.89
36284;BME280;56085;48.910;9.478;2023-03-13T13:11:44;96847.13;;;32.28;38.54
36284;BME280;56085;48.910;9.478;2023-03-13T13:16:43;96833.66;;;30.65;37.27
36284;BME280;56085;48.910;9.478;2023-03-13T13:25:00;96844.78;;;29.60;35.86
36284;BME280;56085;48.910;9.478;2023-03-13T13:30:04;96804.47;;;29.45;34.86
36284;BME280;56085;48.910;9.478;2023-03-13T13:32:51;96809.47;;;29.75;34.63
36284;BME280;56085;48.910;9.478;2023-03-13T13:37:43;96786.47;;;26.93;34.33
36284;BME280;56085;48.910;9.478;2023-03-13T13:40:18;96791.63;;;26.95;34.28
36284;BME280;56085;48.910;9.478;2023-03-13T13:42:48;96776.50;;;26.66;34.26
36284;BME280;56085;48.910;9.478;2023-03-13T13:47:40;96757.09;;;26.04;34.18
36284;BME280;56085;48.910;9.478;2023-03-13T13:52:40;96767.63;;;28.07;34.41
36284;BME280;56085;48.910;9.478;2023-03-13T13:57:50;96738.69;;;27.52;33.63
36284;BME280;56085;48.910;9.478;2023-03-13T14:02:47;96761.47;;;29.90;32.95
36284;BME280;56085;48.910;9.478;2023-03-13T14:05:17;96726.09;;;30.35;32.36
36284;BME280;56085;48.910;9.478;2023-03-13T14:07:46;96762.22;;;29.97;32.23
36284;BME280;56085;48.910;9.478;2023-03-13T14:10:23;96699.84;;;29.15;31.87
36284;BME280;56085;48.910;9.478;2023-03-13T14:12:52;96712.00;;;28.51;31.50
36284;BME280;56085;48.910;9.478;2023-03-13T14:17:49;96701.75;;;25.39;31.38
36284;BME280;56085;48.910;9.478;2023-03-13T14:20:19;96682.88;;;24.01;31.32
36284;BME280;56085;48.910;9.478;2023-03-13T14:22:46;96708.72;;;23.64;31.73
36284;BME280;56085;48.910;9.478;2023-03-13T14:25:11;96680.94;;;23.42;32.04